Time;durP1;ratioP1;P1;durP2;ratioP2;P2;SDS_P1;SDS_P2;PMS_P1;PMS_P2;Temp;Humidity;BMP_temperature;BMP_pressure;BME280_temperature;BME280_humidity;BME280_pressure;Samples;Min_cycle;Max_cycle;Signal;HPM_P1;HPM_P2
2022/05/29 00:02:08;;;;;;;12.95;5.90;;;8.90;99.90;;;;;;5053096;28;20021;-57
2022/05/29 00:04:34;;;;;;;15.55;7.07;;;8.90;99.90;;;;;;5027268;28;20030;-57
2022/05/29 00:07:00;;;;;;;14.23;6.38;;;8.80;99.90;;;;;;5023074;28;20040;-58
2022/05/29 00:09:33;;;;;;;14.85;7.20;;;8.90;99.90;;;;;;5022225;28;20381;-60
2022/05/29 00:12:01;;;;;;;14.93;6.70;;;8.80;99.90;;;;;;5021767;28;20060;-60
2022/05/29 00:14:28;;;;;;;14.93;6.88;;;8.80;99.90;;;;;;5021520;28;20090;-57
2022/05/29 00:16:53;;;;;;;12.70;6.30;;;8.80;99.90;;;;;;5023325;28;20021;-57
2022/05/29 00:19:19;;;;;;;12.68;6.65;;;8.80;99.90;;;;;;5021592;28;20022;-57
2022/05/29 00:21:45;;;;;;;15.80;6.30;;;8.80;99.90;;;;;;5021270;28;20053;-60
2022/05/29 00:24:11;;;;;;;15.15;6.70;;;8.90;99.90;;;;;;5021687;28;20037;-56
2022/05/29 00:26:36;;;;;;;15.25;6.75;;;8.70;99.90;;;;;;5023258;28;20028;-56
2022/05/29 00:29:02;;;;;;;13.93;6.45;;;8.70;99.90;;;;;;5020710;28;20036;-57
2022/05/29 00:31:28;;;;;;;12.50;6.75;;;8.70;99.90;;;;;;5021056;28;20105;-56
2022/05/29 00:33:53;;;;;;;14.75;6.47;;;8.70;99.90;;;;;;5022940;28;20214;-57
2022/05/29 00:36:19;;;;;;;14.02;6.70;;;8.70;99.90;;;;;;5021344;28;20057;-55
2022/05/29 00:38:47;;;;;;;13.82;6.20;;;8.80;99.90;;;;;;5029225;28;20036;-58
2022/05/29 00:41:21;;;;;;;14.80;6.10;;;8.80;99.90;;;;;;5032388;28;20449;-56
2022/05/29 00:44:14;;;;;;;15.05;8.02;;;8.90;99.90;;;;;;5031700;28;20060;-55
2022/05/29 00:46:53;;;;;;;11.95;6.03;;;8.90;99.90;;;;;;5031886;28;20549;-56
2022/05/29 00:49:25;;;;;;;12.48;5.63;;;8.80;99.90;;;;;;5031665;28;20021;-55
2022/05/29 00:51:54;;;;;;;15.82;6.05;;;8.70;99.90;;;;;;5031716;28;20030;-58
2022/05/29 00:54:22;;;;;;;15.45;6.47;;;8.60;99.90;;;;;;5011940;28;20033;-58
2022/05/29 00:56:48;;;;;;;12.10;5.95;;;8.40;99.90;;;;;;5012200;28;20034;-68
2022/05/29 00:59:21;;;;;;;12.67;5.83;;;8.30;99.90;;;;;;5014107;28;20025;-59
2022/05/29 01:01:49;;;;;;;21.95;6.63;;;8.20;99.90;;;;;;5026550;28;20104;-68
2022/05/29 01:04:14;;;;;;;;;;;8.10;99.90;;;;;;5027600;28;20441;-59
2022/05/29 01:06:40;;;;;;;14.75;6.15;;;8.10;99.90;;;;;;5021623;28;19913;-60
2022/05/29 01:09:08;;;;;;;11.02;6.07;;;8.00;99.90;;;;;;5021212;28;20030;-60
2022/05/29 01:11:59;;;;;;;12.20;6.40;;;8.00;99.90;;;;;;5022912;28;20112;-59
2022/05/29 01:14:46;;;;;;;10.70;5.70;;;7.90;99.90;;;;;;5019166;28;20045;-60
2022/05/29 01:17:53;;;;;;;12.88;5.80;;;7.90;99.90;;;;;;5018687;28;20040;-59
2022/05/29 01:20:27;;;;;;;18.73;6.65;;;7.80;99.90;;;;;;4995817;28;20041;-60
2022/05/29 01:23:04;;;;;;;12.05;6.03;;;7.80;99.90;;;;;;5019587;28;20480;-60
2022/05/29 01:25:48;;;;;;;16.77;5.80;;;7.70;99.90;;;;;;5021229;28;20435;-59
2022/05/29 01:28:32;;;;;;;11.98;6.20;;;7.70;99.90;;;;;;5024328;28;20028;-58
2022/05/29 01:31:06;;;;;;;13.77;6.03;;;7.70;99.90;;;;;;4998309;28;20616;-59
2022/05/29 01:33:46;;;;;;;15.80;5.95;;;7.60;99.90;;;;;;5006717;28;20026;-60
2022/05/29 01:36:19;;;;;;;12.55;6.43;;;7.60;99.90;;;;;;5019884;28;20124;-58
2022/05/29 01:38:49;;;;;;;13.20;6.30;;;7.50;99.90;;;;;;5019285;28;20036;-58
2022/05/29 01:41:43;;;;;;;12.52;6.10;;;7.50;99.90;;;;;;5017345;28;20026;-58
2022/05/29 01:44:21;;;;;;;14.73;5.95;;;7.30;99.90;;;;;;5021266;28;20017;-58
2022/05/29 01:46:54;;;;;;;13.40;6.57;;;7.20;99.90;;;;;;5021703;28;20025;-59
2022/05/29 01:49:20;;;;;;;12.98;5.68;;;7.20;99.90;;;;;;5018810;28;20033;-58
2022/05/29 01:51:51;;;;;;;14.88;6.20;;;7.20;99.90;;;;;;5020926;28;20025;-58
2022/05/29 01:54:19;;;;;;;9.75;6.28;;;7.20;99.90;;;;;;5019140;28;20033;-59
2022/05/29 01:56:52;;;;;;;12.60;6.15;;;7.20;99.90;;;;;;5020188;28;20025;-59
2022/05/29 01:59:24;;;;;;;12.10;6.07;;;7.20;99.90;;;;;;5020685;28;20021;-59
2022/05/29 02:02:08;;;;;;;13.98;6.55;;;7.20;99.90;;;;;;5021156;28;20593;-59
2022/05/29 02:04:38;;;;;;;11.90;5.78;;;7.10;99.90;;;;;;5035345;28;20675;-59
2022/05/29 02:10:02;;;;;;;11.73;6.30;;;7.30;99.90;;;;;;5050400;28;20039;-58
2022/05/29 02:12:30;;;;;;;12.18;5.88;;;7.20;99.90;;;;;;5049815;28;20039;-58
2022/05/29 02:15:01;;;;;;;12.93;5.85;;;7.30;99.90;;;;;;5031107;28;20112;-58
2022/05/29 02:17:34;;;;;;;17.58;5.53;;;7.20;99.90;;;;;;5018093;28;20030;-58
2022/05/29 02:20:25;;;;;;;13.82;5.95;;;7.20;99.90;;;;;;5020007;28;20060;-59
2022/05/29 02:22:56;;;;;;;15.60;5.07;;;7.10;99.90;;;;;;5022772;28;20025;-58
2022/05/29 02:25:25;;;;;;;12.60;5.38;;;7.20;99.90;;;;;;5018391;28;20038;-58
2022/05/29 02:28:10;;;;;;;9.88;5.18;;;7.20;99.90;;;;;;5018915;28;20029;-59
2022/05/29 02:30:47;;;;;;;11.10;5.57;;;7.20;99.90;;;;;;5010209;28;20469;-58
2022/05/29 02:33:31;;;;;;;11.18;5.65;;;7.20;99.90;;;;;;5010054;28;20144;-56
2022/05/29 02:36:24;;;;;;;9.95;5.20;;;7.00;99.90;;;;;;5018919;28;20064;-57
2022/05/29 02:39:22;;;;;;;15.48;5.53;;;6.90;99.90;;;;;;5025521;28;20075;-62
2022/05/29 02:42:08;;;;;;;11.18;5.95;;;6.90;99.90;;;;;;4997241;28;20040;-58
2022/05/29 02:45:00;;;;;;;11.82;5.35;;;6.80;99.90;;;;;;5017611;28;20030;-61
2022/05/29 02:47:42;;;;;;;9.38;5.38;;;6.70;99.90;;;;;;5002256;28;20109;-56
2022/05/29 02:50:11;;;;;;;15.30;5.93;;;6.60;99.90;;;;;;5019573;28;20038;-58
2022/05/29 02:52:37;;;;;;;15.23;6.00;;;6.70;99.90;;;;;;5017159;28;20022;-58
2022/05/29 02:55:02;;;;;;;13.90;6.18;;;6.70;99.90;;;;;;5017949;28;20034;-56
2022/05/29 02:57:28;;;;;;;10.48;5.43;;;6.70;99.90;;;;;;5019413;28;20039;-60
2022/05/29 03:00:03;;;;;;;11.52;5.53;;;6.70;99.90;;;;;;5017573;28;20088;-60
2022/05/29 03:02:37;;;;;;;11.05;6.32;;;6.70;99.90;;;;;;5017436;28;20437;-59
2022/05/29 03:05:21;;;;;;;11.02;6.30;;;6.70;99.90;;;;;;5018041;28;20510;-60
2022/05/29 03:07:55;;;;;;;14.27;7.30;;;6.70;99.90;;;;;;5027438;28;20083;-61
2022/05/29 03:10:37;;;;;;;14.90;7.05;;;6.70;99.90;;;;;;5049380;28;20531;-63
2022/05/29 03:13:13;;;;;;;14.57;6.65;;;6.80;99.90;;;;;;5049324;28;20029;-64
2022/05/29 03:16:03;;;;;;;9.52;6.22;;;6.80;99.90;;;;;;5049208;28;20419;-53
2022/05/29 03:18:56;;;;;;;13.68;6.38;;;6.50;99.90;;;;;;5049350;28;20021;-53
2022/05/29 03:21:37;;;;;;;12.52;7.00;;;6.40;99.90;;;;;;5049393;28;20041;-53
2022/05/29 03:24:30;;;;;;;12.38;6.65;;;6.40;99.90;;;;;;5049289;28;20044;-53
2022/05/29 03:27:08;;;;;;;14.40;7.47;;;6.40;99.90;;;;;;5049406;28;20032;-52
2022/05/29 03:29:42;;;;;;;17.35;8.40;;;6.50;99.90;;;;;;5049152;28;20021;-55
2022/05/29 03:32:09;;;;;;;14.23;7.50;;;6.50;99.90;;;;;;5049106;28;20111;-53
2022/05/29 03:34:34;;;;;;;17.48;7.97;;;6.60;99.90;;;;;;5048894;28;20033;-53
2022/05/29 03:37:00;;;;;;;17.40;8.50;;;6.60;99.90;;;;;;5048950;28;20036;-55
2022/05/29 03:39:26;;;;;;;14.75;7.63;;;6.70;99.90;;;;;;5049238;28;20079;-55
2022/05/29 03:41:53;;;;;;;21.02;8.73;;;6.80;99.90;;;;;;5049138;28;20025;-56
2022/05/29 03:44:20;;;;;;;;;;;6.90;99.90;;;;;;5049369;28;20039;-54
2022/05/29 03:46:46;;;;;;;17.90;8.50;;;7.10;99.90;;;;;;5049163;28;19999;-55
2022/05/29 03:49:14;;;;;;;18.15;8.90;;;7.10;99.90;;;;;;5049144;28;20104;-55
2022/05/29 03:51:40;;;;;;;13.07;7.40;;;7.20;99.90;;;;;;5048947;28;20022;-54
2022/05/29 03:54:06;;;;;;;16.88;8.55;;;7.20;99.90;;;;;;5048984;28;20033;-54
2022/05/29 03:56:32;;;;;;;18.13;8.47;;;7.30;99.90;;;;;;5049250;28;20032;-55
2022/05/29 03:58:58;;;;;;;15.75;8.77;;;7.40;99.90;;;;;;5048654;28;20301;-54
2022/05/29 04:01:26;;;;;;;17.42;8.10;;;7.40;99.90;;;;;;5048691;28;20029;-54
2022/05/29 04:03:53;;;;;;;16.50;8.02;;;7.40;99.90;;;;;;5050709;28;20029;-53
2022/05/29 04:06:20;;;;;;;15.10;7.15;;;7.50;99.90;;;;;;5052640;28;20108;-53
2022/05/29 04:14:15;;;;;;;15.52;6.78;;;7.80;99.90;;;;;;5052197;28;20036;-53
2022/05/29 04:16:40;;;;;;;13.75;6.90;;;7.90;99.90;;;;;;5052393;28;20033;-53
2022/05/29 04:19:06;;;;;;;14.18;7.28;;;8.00;99.90;;;;;;5052200;28;20029;-53
2022/05/29 04:21:32;;;;;;;16.42;7.30;;;8.00;99.90;;;;;;5052149;28;20032;-53
2022/05/29 04:23:58;;;;;;;19.38;7.20;;;8.10;99.90;;;;;;5052094;28;20531;-56
2022/05/29 04:26:24;;;;;;;20.08;6.60;;;8.20;99.90;;;;;;5052480;28;20053;-58
2022/05/29 04:28:50;;;;;;;17.58;7.22;;;8.30;99.90;;;;;;5052026;28;20124;-59
2022/05/29 04:31:16;;;;;;;18.25;6.88;;;8.40;99.90;;;;;;5051966;28;20104;-58
2022/05/29 04:33:43;;;;;;;15.38;6.13;;;8.50;99.90;;;;;;5052061;28;20564;-58
2022/05/29 04:36:08;;;;;;;16.80;6.97;;;8.50;99.90;;;;;;5051989;28;20029;-58
2022/05/29 04:38:34;;;;;;;14.55;7.40;;;8.60;99.90;;;;;;5033937;28;20025;-59
2022/05/29 04:41:06;;;;;;;15.85;7.05;;;8.60;99.90;;;;;;5024210;28;20099;-60
2022/05/29 04:43:32;;;;;;;16.20;6.78;;;8.70;99.90;;;;;;5015906;28;20018;-60
2022/05/29 04:45:57;;;;;;;15.18;6.88;;;8.80;99.90;;;;;;5020366;28;20018;-61
2022/05/29 04:48:24;;;;;;;15.85;7.00;;;8.80;99.90;;;;;;5021900;28;20025;-58
2022/05/29 04:50:56;;;;;;;15.40;6.20;;;8.90;99.90;;;;;;5022534;28;20487;-57
2022/05/29 04:53:21;;;;;;;12.60;6.03;;;9.00;99.90;;;;;;5020997;28;20037;-59
2022/05/29 04:55:47;;;;;;;12.07;5.57;;;9.10;99.90;;;;;;5028692;28;20613;-55
2022/05/29 04:58:13;;;;;;;13.00;5.90;;;9.20;99.90;;;;;;5003863;28;20079;-56
2022/05/29 05:00:38;;;;;;;11.02;6.00;;;9.20;99.90;;;;;;5003471;28;20030;-56
2022/05/29 05:03:04;;;;;;;14.30;6.15;;;9.40;99.90;;;;;;5019457;28;20072;-56
2022/05/29 05:05:30;;;;;;;14.75;5.43;;;9.40;99.90;;;;;;5018971;28;20736;-56
2022/05/29 05:07:55;;;;;;;12.30;5.88;;;9.50;99.90;;;;;;5018760;28;20030;-55
2022/05/29 05:10:21;;;;;;;13.18;5.95;;;9.60;99.90;;;;;;5013623;28;20515;-53
2022/05/29 05:12:47;;;;;;;15.77;6.00;;;9.60;99.90;;;;;;4996199;28;20093;-55
2022/05/29 05:15:16;;;;;;;13.63;6.18;;;9.60;99.90;;;;;;5014069;28;20045;-56
2022/05/29 05:17:42;;;;;;;15.43;5.60;;;9.70;99.90;;;;;;5021542;28;20821;-56
2022/05/29 05:20:08;;;;;;;13.43;5.15;;;9.70;99.90;;;;;;5019172;28;20787;-55
2022/05/29 05:22:34;;;;;;;9.73;4.75;;;9.80;99.90;;;;;;5019948;28;20100;-54
2022/05/29 05:25:01;;;;;;;13.02;4.72;;;9.80;99.90;;;;;;5021347;28;20491;-54
2022/05/29 05:27:27;;;;;;;16.42;5.20;;;9.90;99.90;;;;;;5019296;28;20362;-54
2022/05/29 05:29:52;;;;;;;9.38;4.68;;;10.00;99.90;;;;;;5019990;28;20028;-54
2022/05/29 05:32:18;;;;;;;12.85;5.10;;;10.00;99.90;;;;;;5020680;28;20060;-55
2022/05/29 05:34:43;;;;;;;14.07;4.70;;;10.10;99.90;;;;;;5018858;28;20107;-55
2022/05/29 05:37:11;;;;;;;13.80;5.50;;;10.20;99.90;;;;;;5020771;28;20044;-54
2022/05/29 05:39:36;;;;;;;;;;;10.20;99.90;;;;;;5020158;28;20080;-55
2022/05/29 05:42:02;;;;;;;16.77;5.65;;;10.30;99.90;;;;;;5018673;28;19913;-54
2022/05/29 05:44:28;;;;;;;10.43;4.88;;;10.30;99.90;;;;;;5020159;28;20030;-54
2022/05/29 05:46:54;;;;;;;10.60;5.25;;;10.40;99.90;;;;;;5002127;28;20033;-54
2022/05/29 05:49:21;;;;;;;12.27;4.20;;;10.50;99.90;;;;;;5018672;28;20121;-54
2022/05/29 05:51:48;;;;;;;18.00;5.35;;;10.50;99.90;;;;;;5020199;28;20061;-54
2022/05/29 05:54:14;;;;;;;18.00;4.10;;;10.60;99.90;;;;;;5019385;28;20108;-54
2022/05/29 05:56:45;;;;;;;11.45;3.85;;;10.60;99.90;;;;;;5018921;28;20469;-54
2022/05/29 05:59:11;;;;;;;13.05;3.60;;;10.70;99.90;;;;;;5019072;28;20077;-53
2022/05/29 06:01:37;;;;;;;10.10;3.00;;;10.70;99.90;;;;;;5019294;28;20064;-56
2022/05/29 06:04:03;;;;;;;9.30;2.58;;;10.80;99.90;;;;;;5020712;28;20112;-53
2022/05/29 06:06:29;;;;;;;12.77;3.25;;;10.90;99.90;;;;;;5018999;28;20064;-53
2022/05/29 06:08:56;;;;;;;8.90;3.03;;;11.00;99.90;;;;;;5018858;28;20520;-53
2022/05/29 06:11:23;;;;;;;10.93;3.20;;;11.10;99.90;;;;;;5020342;28;20058;-54
2022/05/29 06:13:49;;;;;;;7.30;2.53;;;11.20;99.90;;;;;;5018377;28;20026;-54
2022/05/29 06:16:15;;;;;;;9.88;2.58;;;11.20;99.90;;;;;;5019186;28;20404;-55
2022/05/29 06:18:41;;;;;;;8.32;2.78;;;11.20;99.90;;;;;;5019761;28;20032;-55
2022/05/29 06:21:06;;;;;;;14.07;2.45;;;11.30;99.90;;;;;;5018163;28;20022;-54
2022/05/29 06:23:34;;;;;;;13.25;2.20;;;11.30;99.90;;;;;;5019801;28;20032;-55
2022/05/29 06:26:08;;;;;;;11.45;2.85;;;11.30;99.90;;;;;;5019573;28;20049;-55
2022/05/29 06:28:34;;;;;;;8.88;2.78;;;11.50;99.90;;;;;;5018601;28;20041;-55
2022/05/29 06:31:06;;;;;;;10.07;2.65;;;11.40;99.90;;;;;;5018101;28;20029;-55
2022/05/29 06:33:32;;;;;;;10.75;2.38;;;11.50;99.90;;;;;;5019298;28;20033;-54
2022/05/29 06:36:19;;;;;;;15.00;3.92;;;11.60;99.90;;;;;;5017233;28;20056;-53
2022/05/29 06:38:45;;;;;;;9.25;3.08;;;11.60;99.90;;;;;;5019742;28;20033;-54
2022/05/29 06:41:13;;;;;;;10.70;3.17;;;11.70;99.90;;;;;;5018331;28;20021;-54
2022/05/29 06:43:39;;;;;;;;;;;11.80;99.90;;;;;;5018655;28;20499;-53
2022/05/29 06:46:06;;;;;;;10.20;1.83;;;11.90;99.90;;;;;;5020031;28;19909;-53
2022/05/29 06:48:33;;;;;;;11.45;3.20;;;11.90;99.90;;;;;;5018560;28;20018;-54
2022/05/29 06:51:26;;;;;;;11.48;3.75;;;11.80;99.90;;;;;;5018239;28;20080;-54
2022/05/29 06:53:54;;;;;;;7.82;2.55;;;11.90;99.90;;;;;;5017777;28;20847;-53
2022/05/29 06:56:21;;;;;;;9.82;2.45;;;12.00;99.90;;;;;;5018242;28;20092;-54
2022/05/29 06:58:47;;;;;;;12.77;3.03;;;12.00;99.90;;;;;;5019521;28;20025;-56
2022/05/29 07:07:00;;;;;;;11.40;2.50;;;12.10;99.90;;;;;;5017954;28;20024;-55
2022/05/29 07:09:32;;;;;;;6.13;1.60;;;12.20;99.90;;;;;;5017226;28;20037;-55
2022/05/29 07:12:07;;;;;;;13.25;2.30;;;12.30;99.90;;;;;;5018012;28;20077;-55
2022/05/29 07:14:38;;;;;;;12.48;2.65;;;12.30;99.90;;;;;;5017852;28;20057;-51
2022/05/29 07:17:04;;;;;;;8.02;2.58;;;12.30;99.90;;;;;;5017452;28;20026;-51
2022/05/29 07:19:30;;;;;;;10.05;2.28;;;12.40;99.90;;;;;;5019349;28;20033;-52
2022/05/29 07:21:57;;;;;;;7.05;2.72;;;12.50;99.90;;;;;;5000663;28;20385;-52
2022/05/29 07:24:23;;;;;;;;;;;12.50;99.90;;;;;;5018115;28;20104;-52
2022/05/29 07:26:49;;;;;;;7.85;1.98;;;12.70;99.90;;;;;;5019499;28;19905;-51
2022/05/29 07:29:17;;;;;;;6.90;2.05;;;12.60;99.90;;;;;;5017943;28;20113;-50
2022/05/29 07:31:44;;;;;;;7.43;2.10;;;12.70;99.90;;;;;;5017411;28;20556;-55
2022/05/29 07:34:09;;;;;;;8.07;2.00;;;12.70;99.90;;;;;;5019115;28;20030;-55
2022/05/29 07:36:35;;;;;;;13.63;2.83;;;12.80;99.90;;;;;;5018393;28;20072;-55
2022/05/29 07:39:01;;;;;;;4.18;1.60;;;12.80;99.90;;;;;;5019824;28;20032;-55
2022/05/29 07:44:11;;;;;;;10.70;3.15;;;13.10;99.90;;;;;;5021609;28;20036;-56
2022/05/29 07:46:37;;;;;;;11.27;1.90;;;13.10;99.90;;;;;;5004318;28;20014;-53
2022/05/29 07:49:03;;;;;;;8.32;2.08;;;13.00;99.90;;;;;;5022976;28;20711;-53
2022/05/29 07:51:29;;;;;;;12.30;2.13;;;12.90;99.90;;;;;;5021117;28;20045;-52
2022/05/29 07:53:57;;;;;;;6.23;1.90;;;13.10;99.90;;;;;;5021854;28;20441;-53
2022/05/29 07:56:22;;;;;;;;;;;13.20;99.90;;;;;;5023609;28;20061;-53
2022/05/29 07:58:48;;;;;;;7.50;2.22;;;13.20;99.90;;;;;;5020464;28;19940;-52
2022/05/29 08:01:15;;;;;;;7.95;2.28;;;13.20;99.90;;;;;;5004234;28;20641;-52
2022/05/29 08:03:41;;;;;;;8.13;2.78;;;13.10;99.90;;;;;;5019629;28;20477;-52
2022/05/29 08:06:07;;;;;;;11.05;2.30;;;13.30;99.90;;;;;;5019034;28;20033;-52
2022/05/29 08:08:33;;;;;;;5.97;2.50;;;13.60;99.90;;;;;;5018552;28;20400;-52
2022/05/29 08:10:58;;;;;;;7.00;1.92;;;13.80;99.90;;;;;;5019100;28;20053;-53
2022/05/29 08:13:24;;;;;;;6.65;2.13;;;13.70;99.90;;;;;;5018943;28;20026;-53
2022/05/29 08:15:51;;;;;;;8.82;2.40;;;13.50;99.90;;;;;;5018533;28;20030;-56
2022/05/29 08:18:16;;;;;;;9.90;1.90;;;13.40;99.90;;;;;;5019383;28;20018;-56
2022/05/29 08:20:42;;;;;;;8.18;1.77;;;13.50;99.90;;;;;;5022201;28;20018;-55
2022/05/29 08:23:08;;;;;;;6.72;1.50;;;13.50;99.90;;;;;;5021464;28;20418;-55
2022/05/29 08:31:03;;;;;;;7.80;1.50;;;13.80;99.90;;;;;;5020878;28;20045;-55
2022/05/29 08:33:32;;;;;;;7.88;2.05;;;14.30;99.90;;;;;;5020605;28;20116;-55
2022/05/29 08:36:28;;;;;;;7.88;2.78;;;14.50;99.90;;;;;;5004198;28;20239;-55
2022/05/29 08:38:56;;;;;;;11.13;2.20;;;14.50;99.90;;;;;;5008386;28;20042;-56
2022/05/29 08:41:39;;;;;;;9.05;2.17;;;14.30;99.90;;;;;;5003450;28;20014;-56
2022/05/29 08:44:14;;;;;;;5.65;1.92;;;14.20;99.90;;;;;;5028657;28;20443;-56
2022/05/29 08:46:49;;;;;;;10.45;2.30;;;14.30;99.90;;;;;;5024990;28;20080;-55
2022/05/29 08:49:18;;;;;;;8.35;1.88;;;14.50;99.90;;;;;;5020621;28;20022;-54
2022/05/29 08:52:08;;;;;;;5.38;1.50;;;14.40;99.90;;;;;;5018971;28;20088;-55
2022/05/29 08:54:50;;;;;;;5.93;1.20;;;14.60;99.90;;;;;;5023508;28;20380;-55
2022/05/29 08:57:25;;;;;;;7.63;2.00;;;15.00;99.90;;;;;;5027406;28;20394;-55
2022/05/29 09:00:01;;;;;;;5.93;1.50;;;15.20;97.60;;;;;;5011870;28;20030;-55
2022/05/29 09:02:47;;;;;;;12.43;1.83;;;15.20;96.60;;;;;;5010371;28;20017;-54
2022/05/29 09:05:35;;;;;;;9.50;2.15;;;15.20;98.10;;;;;;5011857;28;20469;-54
2022/05/29 09:08:09;;;;;;;4.75;1.83;;;15.30;99.90;;;;;;5011753;28;20053;-54
2022/05/29 09:10:47;;;;;;;9.25;1.60;;;15.30;99.90;;;;;;4993827;28;20405;-54
2022/05/29 09:13:25;;;;;;;8.77;1.58;;;15.30;99.90;;;;;;5011365;28;20680;-54
2022/05/29 09:15:56;;;;;;;4.40;1.50;;;15.40;99.90;;;;;;5011354;28;20109;-54
2022/05/29 09:18:40;;;;;;;6.82;1.65;;;15.30;99.90;;;;;;5022344;28;20030;-54
2022/05/29 09:21:11;;;;;;;7.70;2.35;;;15.30;99.90;;;;;;5021282;28;20032;-54
2022/05/29 09:23:49;;;;;;;6.00;1.58;;;15.30;99.90;;;;;;5016133;28;20101;-54
2022/05/29 09:26:21;;;;;;;10.93;1.70;;;15.10;99.50;;;;;;5016702;28;20520;-54
2022/05/29 09:28:47;;;;;;;7.65;1.45;;;15.10;98.00;;;;;;5022326;28;20413;-54
2022/05/29 09:31:19;;;;;;;4.97;1.25;;;15.10;95.80;;;;;;5028612;28;20523;-54
2022/05/29 09:33:46;;;;;;;8.65;1.80;;;15.10;95.70;;;;;;5028323;28;20108;-54
2022/05/29 09:36:52;;;;;;;7.10;2.00;;;15.30;99.10;;;;;;5028531;28;20051;-55
2022/05/29 09:39:38;;;;;;;7.97;1.55;;;15.20;94.70;;;;;;5028670;28;20034;-55
2022/05/29 09:42:29;;;;;;;9.23;1.58;;;15.50;99.90;;;;;;5028746;28;20239;-52
2022/05/29 09:45:17;;;;;;;8.63;1.60;;;15.60;93.60;;;;;;5013425;28;20022;-52
2022/05/29 09:50:44;;;;;;;6.47;1.75;;;16.20;92.60;;;;;;5020151;28;20145;-59
2022/05/29 09:53:23;;;;;;;7.65;1.83;;;16.40;91.00;;;;;;5018173;28;20030;-54
2022/05/29 09:55:56;;;;;;;7.60;1.55;;;16.30;87.20;;;;;;5018590;28;20420;-56
2022/05/29 09:58:36;;;;;;;6.97;1.15;;;16.00;92.10;;;;;;5018379;28;20017;-54
2022/05/29 10:01:08;;;;;;;4.07;1.20;;;16.20;91.50;;;;;;5019724;28;20036;-55
2022/05/29 10:03:43;;;;;;;5.68;1.52;;;16.00;86.40;;;;;;5018936;28;20033;-54
2022/05/29 10:06:17;;;;;;;5.47;1.38;;;16.10;87.10;;;;;;5017452;28;20037;-52
2022/05/29 10:08:44;;;;;;;6.22;1.40;;;16.40;84.30;;;;;;5018138;28;20164;-57
2022/05/29 10:11:14;;;;;;;;;;;16.60;89.70;;;;;;5020042;28;20052;-58
2022/05/29 10:13:41;;;;;;;5.78;1.30;;;17.20;89.20;;;;;;5016935;28;19917;-56
2022/05/29 10:16:08;;;;;;;3.90;1.20;;;17.10;82.40;;;;;;5019110;28;20030;-54
2022/05/29 10:18:37;;;;;;;4.13;0.90;;;17.10;82.40;;;;;;5018797;28;20029;-54
2022/05/29 10:21:08;;;;;;;3.17;0.98;;;17.50;79.70;;;;;;5020861;28;20136;-54
2022/05/29 10:23:36;;;;;;;5.85;1.65;;;17.50;77.70;;;;;;5019330;28;20452;-53
2022/05/29 10:26:07;;;;;;;4.55;1.50;;;17.10;79.80;;;;;;5020486;28;20056;-53
2022/05/29 10:28:37;;;;;;;4.60;1.77;;;17.20;80.00;;;;;;5020442;28;20021;-53
2022/05/29 10:31:04;;;;;;;6.18;1.40;;;17.20;81.90;;;;;;5020605;28;20021;-54
2022/05/29 10:33:33;;;;;;;4.28;1.27;;;16.80;83.60;;;;;;5018363;28;20026;-54
2022/05/29 10:36:15;;;;;;;4.10;1.63;;;16.50;78.10;;;;;;5019068;28;20057;-60
2022/05/29 10:38:43;;;;;;;3.90;1.20;;;16.30;77.80;;;;;;5017135;28;20909;-59
2022/05/29 10:41:12;;;;;;;7.32;1.48;;;16.40;82.80;;;;;;5019849;28;20032;-57
2022/05/29 10:43:41;;;;;;;9.07;2.47;;;17.00;86.00;;;;;;5018248;28;20080;-57
2022/05/29 10:46:12;;;;;;;4.45;1.40;;;17.20;81.20;;;;;;5017904;28;20052;-54
2022/05/29 10:48:53;;;;;;;5.15;1.50;;;17.00;80.00;;;;;;5018352;28;20120;-54
2022/05/29 10:51:30;;;;;;;4.25;1.20;;;16.50;79.30;;;;;;5018515;28;20033;-52
2022/05/29 10:54:31;;;;;;;7.75;1.38;;;16.80;85.70;;;;;;5017700;28;20032;-55
2022/05/29 10:57:34;;;;;;;7.43;1.20;;;16.90;78.50;;;;;;4938488;29;20058;-53
2022/05/29 11:00:38;;;;;;;7.43;1.70;;;16.90;79.90;;;;;;5013453;28;20112;-54
2022/05/29 11:03:20;;;;;;;7.20;1.40;;;17.00;81.00;;;;;;5018647;28;20048;-54
2022/05/29 11:06:02;;;;;;;3.85;1.00;;;17.00;81.20;;;;;;5024081;28;20149;-54
2022/05/29 11:08:55;;;;;;;3.78;1.17;;;17.00;80.80;;;;;;5020865;28;20032;-53
2022/05/29 11:11:31;;;;;;;3.78;1.15;;;16.90;81.40;;;;;;5021859;28;20116;-54
2022/05/29 11:14:28;;;;;;;4.50;1.00;;;16.90;77.30;;;;;;5023346;28;20083;-54
2022/05/29 11:17:32;;;;;;;4.65;1.48;;;16.80;78.30;;;;;;5004573;28;20117;-54
2022/05/29 11:20:20;;;;;;;3.50;1.83;;;16.50;75.60;;;;;;5022828;28;20037;-54
2022/05/29 11:22:58;;;;;;;3.70;1.13;;;16.60;80.20;;;;;;5023659;28;20529;-54
2022/05/29 11:25:26;;;;;;;5.03;1.17;;;16.40;79.80;;;;;;5023949;28;20103;-55
2022/05/29 11:28:10;;;;;;;8.60;1.52;;;16.50;81.80;;;;;;5024315;28;20268;-54
2022/05/29 11:31:13;;;;;;;4.78;0.95;;;16.80;84.40;;;;;;5023983;28;20121;-54
2022/05/29 11:33:59;;;;;;;4.35;0.98;;;17.10;73.10;;;;;;5024192;28;20037;-55
2022/05/29 11:36:45;;;;;;;9.90;1.95;;;17.20;75.00;;;;;;5018704;28;20068;-55
2022/05/29 11:42:11;;;;;;;6.00;1.10;;;18.00;75.90;;;;;;4972474;28;20058;-83
2022/05/29 11:45:01;;;;;;;2.92;0.90;;;18.40;75.10;;;;;;4983410;28;20529;-84
2022/05/29 11:53:36;;;;;;;2.95;0.88;;;18.70;71.80;;;;;;4985562;28;20038;-85
2022/05/29 11:56:29;;;;;;;6.07;1.67;;;19.00;76.00;;;;;;4986722;28;20033;-84
2022/05/29 11:59:24;;;;;;;5.78;1.20;;;19.00;71.00;;;;;;4985026;28;20033;-86
2022/05/29 12:02:20;;;;;;;4.55;1.02;;;19.00;73.60;;;;;;4986367;28;20034;-85
2022/05/29 12:05:13;;;;;;;5.13;1.00;;;19.00;68.10;;;;;;4985597;28;20010;-85
2022/05/29 12:07:51;;;;;;;6.95;1.40;;;19.10;74.70;;;;;;4950651;28;20041;-90
2022/05/29 12:10:22;;;;;;;5.43;1.40;;;19.30;73.80;;;;;;4986630;28;20030;-88
2022/05/29 12:12:58;;;;;;;5.57;1.13;;;19.00;70.40;;;;;;4991779;28;20022;-89
2022/05/29 12:15:28;;;;;;;5.65;1.42;;;18.90;68.20;;;;;;5007673;28;20019;-89
2022/05/29 12:18:02;;;;;;;6.10;1.40;;;18.80;73.70;;;;;;5004648;28;20023;-86
2022/05/29 12:20:49;;;;;;;5.55;0.95;;;18.80;66.60;;;;;;5018986;23;20054;-55
2022/05/29 12:23:24;;;;;;;7.30;1.52;;;18.60;65.60;;;;;;5021776;28;20037;-54
2022/05/29 12:26:17;;;;;;;4.55;1.05;;;18.60;68.80;;;;;;5022092;28;20105;-55
2022/05/29 12:29:03;;;;;;;8.52;1.35;;;18.70;69.60;;;;;;5013576;28;20033;-55
2022/05/29 12:31:44;;;;;;;5.05;1.38;;;18.90;70.10;;;;;;5023241;28;20112;-56
2022/05/29 12:34:32;;;;;;;4.72;1.08;;;19.00;62.90;;;;;;5020626;28;20058;-55
2022/05/29 12:37:07;;;;;;;8.00;1.13;;;19.10;62.90;;;;;;5022939;28;20029;-55
2022/05/29 12:39:54;;;;;;;4.43;1.35;;;19.30;68.00;;;;;;5026159;28;20025;-55
2022/05/29 12:42:48;;;;;;;4.05;1.08;;;19.60;71.80;;;;;;5024018;28;20082;-56
2022/05/29 12:45:40;;;;;;;6.03;1.70;;;19.70;68.10;;;;;;5032081;28;20029;-55
2022/05/29 12:48:43;;;;;;;3.40;1.10;;;19.80;69.80;;;;;;5024923;28;20075;-55
2022/05/29 12:51:14;;;;;;;5.03;1.20;;;19.80;65.10;;;;;;5021162;28;20400;-55
2022/05/29 12:54:00;;;;;;;5.13;1.58;;;19.50;65.90;;;;;;5019743;28;20183;-55
2022/05/29 12:56:38;;;;;;;3.20;1.00;;;19.40;59.70;;;;;;5022033;28;20029;-55
2022/05/29 12:59:12;;;;;;;6.53;1.27;;;19.20;62.10;;;;;;5017740;28;20042;-55
2022/05/29 13:02:13;;;;;;;5.82;1.10;;;19.10;63.70;;;;;;5012717;28;20033;-53
2022/05/29 13:05:16;;;;;;;3.72;1.42;;;19.40;66.00;;;;;;4968073;28;20112;-56
2022/05/29 13:07:59;;;;;;;8.70;2.58;;;19.50;68.60;;;;;;5012017;28;20092;-56
2022/05/29 13:10:32;;;;;;;3.95;1.13;;;19.30;59.90;;;;;;5024805;28;20556;-55
2022/05/29 13:13:35;;;;;;;7.55;1.70;;;19.10;62.80;;;;;;5022154;28;20600;-57
2022/05/29 13:16:30;;;;;;;5.80;1.10;;;19.10;64.50;;;;;;5015000;28;20404;-60
2022/05/29 13:21:59;;;;;;;4.93;1.08;;;19.40;68.20;;;;;;5020139;28;20026;-53
2022/05/29 13:24:33;;;;;;;5.00;1.30;;;19.70;62.20;;;;;;5003566;28;20029;-56
2022/05/29 13:27:12;;;;;;;4.70;1.00;;;19.30;58.40;;;;;;5020945;28;20109;-52
2022/05/29 13:29:54;;;;;;;4.75;1.17;;;19.10;59.90;;;;;;5020268;28;20480;-53
2022/05/29 13:32:33;;;;;;;5.20;1.40;;;19.20;62.90;;;;;;5021138;28;20381;-52
2022/05/29 13:35:05;;;;;;;5.57;1.30;;;19.30;62.70;;;;;;5021378;28;20058;-52
2022/05/29 13:37:45;;;;;;;5.40;1.55;;;19.20;64.50;;;;;;5023905;28;20030;-51
2022/05/29 13:40:29;;;;;;;4.70;1.20;;;19.20;65.70;;;;;;5021236;28;20030;-52
2022/05/29 13:43:19;;;;;;;4.90;1.88;;;19.00;62.00;;;;;;5016106;28;20048;-52
2022/05/29 13:45:45;;;;;;;4.88;1.40;;;19.00;62.00;;;;;;5011544;28;20072;-54
2022/05/29 13:48:17;;;;;;;2.83;0.90;;;18.90;59.90;;;;;;5011123;28;20022;-54
2022/05/29 13:51:11;;;;;;;4.68;1.13;;;18.70;59.00;;;;;;5011385;28;20357;-54
2022/05/29 13:53:50;;;;;;;4.05;1.10;;;18.70;60.90;;;;;;4979770;28;20361;-54
2022/05/29 13:56:18;;;;;;;3.97;1.10;;;19.00;62.60;;;;;;5011353;28;20037;-55
2022/05/29 14:04:39;;;;;;;3.58;1.15;;;19.60;54.40;;;;;;5011362;28;20487;-54
2022/05/29 14:07:08;;;;;;;3.83;1.00;;;19.40;57.20;;;;;;5009855;28;20072;-54